Huvudsida
METAR-TAF:

METAR-TAF

Flygplatser :

Sandane flygplats. Anda

Sandane, Norge

latitud: 61-50N, longitud: 006-07E, höjd: 6 m

Aktuellt väderrapport

Denna rapport gjordes för 37 minuter sedan, klockan 21:20 UTC
Vind 8 kt från nordväst, varierande mellan väst och nord
Temperatur 4°C
Fuktighet 75%
Tryck 1017 hPa
Sikt 10 km eller mer

METAR: ENSD 232120Z AUTO 32008KT 260V360 9999 OVC076/// 04/M00 Q1017 RMK WIND RWY 26 VRB03KT WIND 1140FT VRB03KT

Tid: 23:57 (21:57 UTC)

Väderprognos

Denna rapport gjordes för 7 timmar och 57 minuter sedan, klockan 14:00 UTC
Prognos gäller från 23 kl. 15 UTC till 23 kl. 21 UTC
Vind 8 kt från nordväst
Sikt 10 km eller mer
Få moln på en höjd av 2000 ft, Högtornande cumulus.
Brutna moln på en höjd av 3500 ft
Sannolikhet 30% :
Temporärt
från 23 kl. 15 UTC till 23 kl. 19 UTC
Brutna moln på en höjd av 1400 ft, Cumulonimbus.
regnskurar,

TAF: ENSD 231400Z 2315/2321 31008KT 9999 FEW020TCU BKN035 PROB30 TEMPO 2315/2319 SHRA BKN014CB

Aktuella väderrapporter och prognoser från 4000 flygplatser (METAR- och TAF-rapporter).

De tillgängliga stationerna syns som gula och röda prickar på kartan.

För musen över prickarna för att se namnen på stationerna.

Klicka sedan för att få väderrapporter och prognoser.

För att ändra kartan: Klicka på de gröna knapparna med ett svart kors på för att zooma in; den gröna knappen med ett streck på för att zooma ut; eller på de gröna pilarna för angränsande kartor.


METAR-TAF: